Saginaw, Washington
Current Conditions -  °F | °C
As of 2:53 AM on Friday 24 Oct 2014 (Local Time) from KSHN Reporting Station
Overcast Overcast  
Wind Chill: 47°   Ceiling: 300
Heat Index: 47°   Visibility: 8mi
Dew Point: 46°   Wind: 0mph
Humidity: 97%   Direction: NA
Pressure: 30.01"   Gusts: NA
Location:  46.9859°N, 123.385°W
Report Text: KSHN 240953Z AUTO 00000KT 8SM OVC003 08/08 A3001 RMK AO2 SLP163 T00830078 TSNO
Loading
Personal Weather Stations






























Interactive Weather Map
Tropical Storm Tracking
New forecast layout! Learn more

10-Day Weather Forecast

Advertisements
Track Severe Weather on mobile